createdAt,value
2022-09-15T00:00:58.988Z,979.7
2022-09-15T00:02:13.351Z,979.67
2022-09-15T00:03:02.528Z,979.65
2022-09-15T00:04:04.215Z,979.69
2022-09-15T00:05:05.974Z,979.69
2022-09-15T00:06:07.692Z,979.67
2022-09-15T00:07:09.385Z,979.68
2022-09-15T00:08:11.127Z,979.7
2022-09-15T00:09:12.874Z,979.68
2022-09-15T00:10:17.498Z,979.71
2022-09-15T00:11:16.345Z,979.7
2022-09-15T00:12:18.056Z,979.73
2022-09-15T00:13:19.806Z,979.74
2022-09-15T00:14:21.525Z,979.73
2022-09-15T00:15:23.251Z,979.71
2022-09-15T00:16:25.104Z,979.7
2022-09-15T00:17:26.726Z,979.7
2022-09-15T00:18:28.460Z,979.67
2022-09-15T00:19:30.208Z,979.66
2022-09-15T00:20:31.929Z,979.69
2022-09-15T00:21:33.668Z,979.68
2022-09-15T00:22:35.392Z,979.62
2022-09-15T00:23:37.152Z,979.59
2022-09-15T00:24:38.875Z,979.46
2022-09-15T00:25:40.584Z,979.53
2022-09-15T00:26:42.317Z,979.49
2022-09-15T00:27:47.285Z,979.58
2022-09-15T00:28:45.797Z,979.57
2022-09-15T00:29:47.528Z,979.58
2022-09-15T00:30:49.389Z,979.6
2022-09-15T00:31:50.998Z,979.61
2022-09-15T00:32:52.757Z,979.6
2022-09-15T00:33:54.474Z,979.59
2022-09-15T00:34:57.612Z,979.55
2022-09-15T00:35:57.943Z,979.63
2022-09-15T00:36:59.682Z,979.61
2022-09-15T00:38:01.439Z,979.65
2022-09-15T00:39:03.119Z,979.62
2022-09-15T00:40:04.912Z,979.57
2022-09-15T00:41:06.610Z,979.56
2022-09-15T00:42:08.346Z,979.62
2022-09-15T00:43:10.058Z,979.6
2022-09-15T00:44:11.796Z,979.59
2022-09-15T00:45:13.544Z,979.59
2022-09-15T00:46:15.350Z,979.55
2022-09-15T00:47:19.659Z,979.55
2022-09-15T00:48:18.747Z,979.53
2022-09-15T00:49:20.472Z,979.57
2022-09-15T00:50:42.774Z,979.62
2022-09-15T00:51:44.519Z,979.55
2022-09-15T00:52:47.011Z,979.56
2022-09-15T00:53:47.980Z,979.57
2022-09-15T00:54:49.713Z,979.54
2022-09-15T00:55:51.448Z,979.57
2022-09-15T00:56:53.177Z,979.54
2022-09-15T00:57:54.915Z,979.53
2022-09-15T00:58:56.678Z,979.56
2022-09-15T00:59:58.414Z,979.56
2022-09-15T01:01:00.174Z,979.52
2022-09-15T01:02:01.935Z,979.53
2022-09-15T01:03:05.787Z,979.54
2022-09-15T01:04:05.319Z,979.55
2022-09-15T01:05:07.040Z,979.51
2022-09-15T01:06:08.792Z,979.55
2022-09-15T01:07:10.520Z,979.54
2022-09-15T01:08:12.248Z,979.53
2022-09-15T01:09:13.981Z,979.54
2022-09-15T01:10:16.044Z,979.5
2022-09-15T01:11:17.451Z,979.51
2022-09-15T01:12:19.204Z,979.48
2022-09-15T01:13:20.907Z,979.52
2022-09-15T01:14:22.656Z,979.5
2022-09-15T01:15:24.391Z,979.51
2022-09-15T01:16:26.220Z,979.49
2022-09-15T01:17:28.886Z,979.55
2022-09-15T01:18:29.581Z,979.51
2022-09-15T01:19:31.343Z,979.52
2022-09-15T01:20:33.066Z,979.54
2022-09-15T01:21:34.792Z,979.52
2022-09-15T01:22:36.531Z,979.5
2022-09-15T01:23:38.267Z,979.51
2022-09-15T01:24:39.972Z,979.52
2022-09-15T01:25:41.704Z,979.52
2022-09-15T01:26:43.437Z,979.49
2022-09-15T01:27:45.209Z,979.51
2022-09-15T01:28:47.038Z,979.45
2022-09-15T01:29:48.656Z,979.42
2022-09-15T01:30:50.369Z,979.48
2022-09-15T01:31:52.234Z,979.48
2022-09-15T01:32:53.865Z,979.49
2022-09-15T01:33:55.569Z,979.45
2022-09-15T01:34:57.320Z,979.48
2022-09-15T01:35:59.054Z,979.46
2022-09-15T01:37:00.785Z,979.51
2022-09-15T01:38:02.542Z,979.46
2022-09-15T01:39:04.255Z,979.47
2022-09-15T01:40:06.042Z,979.49
2022-09-15T01:41:07.718Z,979.44
2022-09-15T01:42:09.481Z,979.44
2022-09-15T01:43:11.178Z,979.44
2022-09-15T01:44:12.926Z,979.46
2022-09-15T01:45:14.656Z,979.47
2022-09-15T01:46:16.559Z,979.46
2022-09-15T01:47:18.142Z,979.42
2022-09-15T01:48:19.863Z,979.43
2022-09-15T01:49:21.605Z,979.46
2022-09-15T01:50:23.157Z,979.42
2022-09-15T01:51:24.901Z,979.42
2022-09-15T01:52:26.659Z,979.44
2022-09-15T01:53:28.385Z,979.46
2022-09-15T01:54:30.117Z,979.48
2022-09-15T01:55:31.829Z,979.45
2022-09-15T01:56:33.573Z,979.48
2022-09-15T01:57:35.328Z,979.48
2022-09-15T01:58:37.069Z,979.51
2022-09-15T01:59:38.801Z,979.5
2022-09-15T02:00:40.541Z,979.55
2022-09-15T02:01:42.398Z,979.53
2022-09-15T02:02:44.018Z,979.55
2022-09-15T02:03:45.752Z,979.52
2022-09-15T02:04:47.514Z,979.56
2022-09-15T02:05:49.234Z,979.54
2022-09-15T02:06:50.950Z,979.52
2022-09-15T02:07:52.735Z,979.5
2022-09-15T02:08:54.430Z,979.54
2022-09-15T02:09:56.155Z,979.49
2022-09-15T02:10:57.859Z,979.5
2022-09-15T02:11:59.626Z,979.47
2022-09-15T02:13:02.653Z,979.51
2022-09-15T02:14:03.052Z,979.53
2022-09-15T02:15:04.792Z,979.52
2022-09-15T02:16:06.622Z,979.53
2022-09-15T02:17:08.273Z,979.56
2022-09-15T02:18:10.003Z,979.54
2022-09-15T02:19:11.736Z,979.57
2022-09-15T02:20:13.480Z,979.55
2022-09-15T02:21:25.185Z,979.55
2022-09-15T02:22:16.961Z,979.56
2022-09-15T02:23:18.679Z,979.53
2022-09-15T02:24:20.403Z,979.58
2022-09-15T02:25:22.143Z,979.58
2022-09-15T02:26:23.885Z,979.54
2022-09-15T02:27:25.618Z,979.58
2022-09-15T02:28:28.313Z,979.57
2022-09-15T02:29:29.079Z,979.53
2022-09-15T02:30:30.844Z,979.53
2022-09-15T02:31:32.743Z,979.51
2022-09-15T02:32:34.326Z,979.47
2022-09-15T02:33:36.041Z,979.53
2022-09-15T02:34:37.796Z,979.52
2022-09-15T02:35:41.641Z,979.52
2022-09-15T02:36:43.263Z,979.59
2022-09-15T02:37:42.989Z,979.56
2022-09-15T02:38:44.757Z,979.58
2022-09-15T02:39:46.546Z,979.57
2022-09-15T02:40:48.184Z,979.59
2022-09-15T02:41:49.921Z,979.55
2022-09-15T02:42:51.656Z,979.53
2022-09-15T02:43:53.399Z,979.55
2022-09-15T02:44:55.136Z,979.62
2022-09-15T02:45:56.986Z,979.59
2022-09-15T02:46:58.616Z,979.61
2022-09-15T02:48:00.343Z,979.61
2022-09-15T02:49:02.062Z,979.66
2022-09-15T02:50:04.840Z,979.61
2022-09-15T02:51:05.533Z,979.65
2022-09-15T02:52:07.273Z,979.69
2022-09-15T02:53:08.989Z,979.66
2022-09-15T02:54:10.747Z,979.65
2022-09-15T02:55:12.482Z,979.72
2022-09-15T02:56:14.203Z,979.69
2022-09-15T02:57:15.952Z,979.73
2022-09-15T02:58:17.697Z,979.68
2022-09-15T02:59:19.461Z,979.71
2022-09-15T03:00:21.139Z,979.69
2022-09-15T03:01:22.958Z,979.72
2022-09-15T03:02:24.667Z,979.7
2022-09-15T03:03:26.364Z,979.72
2022-09-15T03:04:28.090Z,979.72
2022-09-15T03:05:29.904Z,979.77
2022-09-15T03:06:31.527Z,979.77
2022-09-15T03:07:33.270Z,979.75
2022-09-15T03:08:34.994Z,979.76
2022-09-15T03:09:36.725Z,979.8
2022-09-15T03:10:38.460Z,979.8
2022-09-15T03:11:40.234Z,979.76
2022-09-15T03:12:41.948Z,979.82
2022-09-15T03:13:43.715Z,979.78
2022-09-15T03:14:45.416Z,979.81
2022-09-15T03:15:47.151Z,979.86
2022-09-15T03:16:48.878Z,979.82
2022-09-15T03:17:50.647Z,979.84
2022-09-15T03:18:52.337Z,979.87
2022-09-15T03:19:54.084Z,979.86
2022-09-15T03:20:58.870Z,979.85
2022-09-15T03:21:58.587Z,979.89
2022-09-15T03:22:59.287Z,979.86
2022-09-15T03:24:01.039Z,979.9
2022-09-15T03:25:02.746Z,979.92
2022-09-15T03:26:04.487Z,979.94
2022-09-15T03:27:06.214Z,979.92
2022-09-15T03:28:07.950Z,979.96
2022-09-15T03:29:09.687Z,979.96
2022-09-15T03:30:11.421Z,979.98
2022-09-15T03:31:13.289Z,980.02
2022-09-15T03:32:14.890Z,980.05
2022-09-15T03:33:16.626Z,980.1
2022-09-15T03:34:18.367Z,980.1
2022-09-15T03:35:20.125Z,980.13
2022-09-15T03:36:21.837Z,980.09
2022-09-15T03:37:23.601Z,980.15
2022-09-15T03:38:25.307Z,980.14
2022-09-15T03:39:27.072Z,980.19
2022-09-15T03:40:28.794Z,980.21
2022-09-15T03:41:30.498Z,980.22
2022-09-15T03:42:32.230Z,980.26
2022-09-15T03:43:33.971Z,980.26
2022-09-15T03:44:35.698Z,980.28
2022-09-15T03:45:37.515Z,980.28
2022-09-15T03:46:39.171Z,980.28
2022-09-15T03:47:40.926Z,980.32
2022-09-15T03:48:43.677Z,980.28
2022-09-15T03:49:44.402Z,980.27
2022-09-15T03:50:46.109Z,980.26
2022-09-15T03:51:47.877Z,980.28
2022-09-15T03:52:49.602Z,980.28
2022-09-15T03:53:51.492Z,980.24
2022-09-15T03:54:53.049Z,980.24
2022-09-15T03:55:54.806Z,980.24
2022-09-15T03:56:56.518Z,980.22
2022-09-15T03:57:58.248Z,980.17
2022-09-15T03:59:11.615Z,980.18
2022-09-15T04:00:01.736Z,980.2
2022-09-15T04:01:08.525Z,980.19
2022-09-15T04:02:05.395Z,980.16
2022-09-15T04:03:06.920Z,980.19
2022-09-15T04:04:08.825Z,980.21
2022-09-15T04:05:10.931Z,980.19
2022-09-15T04:06:12.128Z,980.2
2022-09-15T04:07:13.870Z,980.24
2022-09-15T04:08:15.607Z,980.29
2022-09-15T04:09:17.365Z,980.29
2022-09-15T04:10:19.098Z,980.28
2022-09-15T04:11:20.814Z,980.3
2022-09-15T04:12:22.535Z,980.34
2022-09-15T04:13:28.426Z,980.34
2022-09-15T04:14:26.014Z,980.37
2022-09-15T04:15:27.737Z,980.33
2022-09-15T04:16:29.603Z,980.32
2022-09-15T04:17:31.245Z,980.32
2022-09-15T04:18:32.946Z,980.33
2022-09-15T04:19:34.682Z,980.34
2022-09-15T04:20:38.175Z,980.33
2022-09-15T04:21:38.163Z,980.35
2022-09-15T04:22:39.884Z,980.44
2022-09-15T04:23:41.712Z,980.43
2022-09-15T04:24:43.370Z,980.44
2022-09-15T04:25:45.115Z,980.44
2022-09-15T04:26:46.833Z,980.47
2022-09-15T04:27:48.577Z,980.47
2022-09-15T04:28:50.293Z,980.51
2022-09-15T04:29:52.024Z,980.49
2022-09-15T04:30:54.882Z,980.54
2022-09-15T04:31:55.580Z,980.56
2022-09-15T04:32:57.265Z,980.59
2022-09-15T04:33:58.961Z,980.6
2022-09-15T04:35:00.720Z,980.64
2022-09-15T04:36:07.438Z,980.62
2022-09-15T04:37:04.162Z,980.61
2022-09-15T04:38:05.899Z,980.66
2022-09-15T04:39:07.648Z,980.62
2022-09-15T04:40:09.469Z,980.69
2022-09-15T04:41:11.127Z,980.67
2022-09-15T04:42:12.850Z,980.67
2022-09-15T04:43:14.586Z,980.68
2022-09-15T04:44:16.301Z,980.68
2022-09-15T04:45:18.048Z,980.67
2022-09-15T04:46:19.848Z,980.66
2022-09-15T04:47:21.520Z,980.66
2022-09-15T04:48:23.254Z,980.67
2022-09-15T04:49:24.983Z,980.68
2022-09-15T04:50:26.727Z,980.66
2022-09-15T04:51:28.456Z,980.73
2022-09-15T04:52:30.202Z,980.77
2022-09-15T04:53:31.946Z,980.78
2022-09-15T04:54:33.662Z,980.84
2022-09-15T04:55:35.410Z,980.79
2022-09-15T04:56:37.145Z,980.83
2022-09-15T04:57:38.863Z,980.82
2022-09-15T04:58:40.601Z,980.85
2022-09-15T04:59:42.324Z,980.85
2022-09-15T05:00:44.101Z,980.83
2022-09-15T05:01:45.887Z,980.84
2022-09-15T05:02:47.776Z,980.8
2022-09-15T05:03:49.292Z,980.86
2022-09-15T05:04:51.011Z,980.9
2022-09-15T05:05:52.773Z,980.89
2022-09-15T05:06:54.475Z,980.88
2022-09-15T05:07:56.226Z,980.86
2022-09-15T05:08:57.951Z,980.92
2022-09-15T05:09:59.977Z,980.92
2022-09-15T05:11:01.410Z,980.95
2022-09-15T05:12:03.173Z,980.98
2022-09-15T05:13:04.861Z,980.98
2022-09-15T05:14:06.604Z,980.98
2022-09-15T05:15:08.355Z,981.03
2022-09-15T05:16:10.172Z,981.01
2022-09-15T05:17:11.824Z,981
2022-09-15T05:18:13.564Z,981.02
2022-09-15T05:19:15.277Z,980.99
2022-09-15T05:20:16.995Z,981.03
2022-09-15T05:21:18.768Z,981.06
2022-09-15T05:22:20.506Z,981.07
2022-09-15T05:23:22.230Z,981.1
2022-09-15T05:24:23.939Z,981.13
2022-09-15T05:25:25.742Z,981.1
2022-09-15T05:26:27.445Z,981.15
2022-09-15T05:27:29.168Z,981.14
2022-09-15T05:28:30.881Z,981.14
2022-09-15T05:29:32.608Z,981.18
2022-09-15T05:30:39.613Z,981.22
2022-09-15T05:31:36.192Z,981.19
2022-09-15T05:32:37.842Z,981.19
2022-09-15T05:33:39.547Z,981.21
2022-09-15T05:34:41.312Z,981.25
2022-09-15T05:35:43.049Z,981.25
2022-09-15T05:36:44.759Z,981.27
2022-09-15T05:37:46.494Z,981.3
2022-09-15T05:38:48.239Z,981.29
2022-09-15T05:39:50.029Z,981.3
2022-09-15T05:40:51.682Z,981.31
2022-09-15T05:41:53.421Z,981.32
2022-09-15T05:42:55.181Z,981.33
2022-09-15T05:43:56.965Z,981.36
2022-09-15T05:44:58.654Z,981.38
2022-09-15T05:46:00.368Z,981.37
2022-09-15T05:47:02.253Z,981.33
2022-09-15T05:48:03.866Z,981.39
2022-09-15T05:49:04.177Z,981.39
2022-09-15T05:50:07.340Z,981.37
2022-09-15T05:51:09.121Z,981.38
2022-09-15T05:52:13.849Z,981.35
2022-09-15T05:53:12.644Z,981.41
2022-09-15T05:54:14.307Z,981.41
2022-09-15T05:55:15.998Z,981.42
2022-09-15T05:56:17.753Z,981.44
2022-09-15T05:57:20.231Z,981.46
2022-09-15T05:58:21.214Z,981.5
2022-09-15T05:59:22.957Z,981.45
2022-09-15T06:00:24.709Z,981.49
2022-09-15T06:01:26.599Z,981.53
2022-09-15T06:02:28.696Z,981.54
2022-09-15T06:03:31.062Z,981.53
2022-09-15T06:04:31.672Z,981.55
2022-09-15T06:05:33.410Z,981.56
2022-09-15T06:06:35.086Z,981.56
2022-09-15T06:07:36.972Z,981.6
2022-09-15T06:08:42.456Z,981.62
2022-09-15T06:09:40.330Z,981.6
2022-09-15T06:10:42.033Z,981.56
2022-09-15T06:11:43.763Z,981.59
2022-09-15T06:12:45.491Z,981.58
2022-09-15T06:13:47.263Z,981.62
2022-09-15T06:14:48.966Z,981.54
2022-09-15T06:15:50.780Z,981.58
2022-09-15T06:16:52.493Z,981.57
2022-09-15T06:17:54.209Z,981.6
2022-09-15T06:18:55.939Z,981.58
2022-09-15T06:19:57.679Z,981.6
2022-09-15T06:20:59.399Z,981.54
2022-09-15T06:22:01.145Z,981.58
2022-09-15T06:23:02.893Z,981.59
2022-09-15T06:24:04.650Z,981.57
2022-09-15T06:25:06.359Z,981.59
2022-09-15T06:26:08.083Z,981.57
2022-09-15T06:27:09.821Z,981.63
2022-09-15T06:28:11.583Z,981.64
2022-09-15T06:29:13.270Z,981.68
2022-09-15T06:30:14.977Z,981.65
2022-09-15T06:31:16.902Z,981.65
2022-09-15T06:32:18.464Z,981.66
2022-09-15T06:33:20.220Z,981.71
2022-09-15T06:34:21.926Z,981.73
2022-09-15T06:35:23.671Z,981.75
2022-09-15T06:36:25.403Z,981.74
2022-09-15T06:37:27.207Z,981.81
2022-09-15T06:38:28.890Z,981.81
2022-09-15T06:39:30.578Z,981.82
2022-09-15T06:40:32.417Z,981.82
2022-09-15T06:41:58.424Z,981.84
2022-09-15T06:42:35.787Z,981.84
2022-09-15T06:43:37.522Z,981.83
2022-09-15T06:44:39.311Z,981.85
2022-09-15T06:45:41.085Z,981.86
2022-09-15T06:46:42.799Z,981.88
2022-09-15T06:47:44.475Z,981.94
2022-09-15T06:48:48.312Z,981.97
2022-09-15T06:49:47.938Z,982.01
2022-09-15T06:50:49.688Z,981.97
2022-09-15T06:51:51.407Z,981.98
2022-09-15T06:52:53.137Z,982.02
2022-09-15T06:53:54.908Z,982.04
2022-09-15T06:54:56.723Z,982.04
2022-09-15T06:55:58.342Z,982.04
2022-09-15T06:57:00.091Z,982.06
2022-09-15T06:58:01.809Z,982.05
2022-09-15T06:59:03.575Z,982.11
2022-09-15T07:00:05.327Z,982.04
2022-09-15T07:01:07.065Z,982.05
2022-09-15T07:02:08.905Z,982.01
2022-09-15T07:03:10.711Z,982.01
2022-09-15T07:04:12.245Z,982.01
2022-09-15T07:05:13.946Z,982.02
2022-09-15T07:06:15.728Z,982.05
2022-09-15T07:07:17.411Z,982.01
2022-09-15T07:08:19.142Z,982.09
2022-09-15T07:09:20.947Z,982.12
2022-09-15T07:10:22.615Z,982.14
2022-09-15T07:11:24.346Z,982.16
2022-09-15T07:12:26.108Z,982.2
2022-09-15T07:13:27.877Z,982.16
2022-09-15T07:14:29.559Z,982.13
2022-09-15T07:15:31.293Z,982.17
2022-09-15T07:16:33.116Z,982.2
2022-09-15T07:17:34.754Z,982.23
2022-09-15T07:18:40.933Z,982.26
2022-09-15T07:19:38.266Z,982.21
2022-09-15T07:20:39.983Z,982.25
2022-09-15T07:21:41.683Z,982.23
2022-09-15T07:22:43.423Z,982.25
2022-09-15T07:23:45.201Z,982.3
2022-09-15T07:24:46.885Z,982.26
2022-09-15T07:25:48.652Z,982.26
2022-09-15T07:26:50.357Z,982.31
2022-09-15T07:27:52.088Z,982.33
2022-09-15T07:28:53.856Z,982.29
2022-09-15T07:29:55.603Z,982.34
2022-09-15T07:30:57.336Z,982.33
2022-09-15T07:31:59.116Z,982.4
2022-09-15T07:33:00.771Z,982.38
2022-09-15T07:34:02.554Z,982.39
2022-09-15T07:35:04.234Z,982.4
2022-09-15T07:36:06.004Z,982.4
2022-09-15T07:37:07.693Z,982.34
2022-09-15T07:38:09.440Z,982.43
2022-09-15T07:39:11.233Z,982.39
2022-09-15T07:40:13.006Z,982.45
2022-09-15T07:41:14.664Z,982.43
2022-09-15T07:42:16.375Z,982.47
2022-09-15T07:43:18.113Z,982.49
2022-09-15T07:44:19.846Z,982.46
2022-09-15T07:45:21.593Z,982.48
2022-09-15T07:46:29.840Z,982.5
2022-09-15T07:47:30.199Z,982.51
2022-09-15T07:48:31.958Z,982.5
2022-09-15T07:49:33.693Z,982.49
2022-09-15T07:50:35.386Z,982.43
2022-09-15T07:51:37.151Z,982.44
2022-09-15T07:52:38.860Z,982.45
2022-09-15T07:53:40.603Z,982.45
2022-09-15T07:54:42.370Z,982.52
2022-09-15T07:55:44.052Z,982.52
2022-09-15T07:56:45.793Z,982.56
2022-09-15T07:57:47.536Z,982.57
2022-09-15T07:58:49.308Z,982.6
2022-09-15T07:59:51.029Z,982.62
2022-09-15T08:00:52.814Z,982.64
2022-09-15T08:01:54.555Z,982.67
2022-09-15T08:02:56.209Z,982.68
2022-09-15T08:03:57.962Z,982.67
2022-09-15T08:05:05.609Z,982.71
2022-09-15T08:06:06.539Z,982.7
2022-09-15T08:07:08.290Z,982.74
2022-09-15T08:08:10.008Z,982.81
2022-09-15T08:09:11.735Z,982.77
2022-09-15T08:10:13.439Z,982.78
2022-09-15T08:11:18.263Z,982.74
2022-09-15T08:12:16.919Z,982.79
2022-09-15T08:13:18.655Z,982.79
2022-09-15T08:14:20.404Z,982.82
2022-09-15T08:15:22.611Z,982.83
2022-09-15T08:16:23.978Z,982.81
2022-09-15T08:17:25.605Z,982.81
2022-09-15T08:18:27.363Z,982.78
2022-09-15T08:19:29.074Z,982.83
2022-09-15T08:20:30.777Z,982.83
2022-09-15T08:21:32.551Z,982.84
2022-09-15T08:22:33.658Z,982.75
2022-09-15T08:23:38.795Z,982.85
2022-09-15T08:24:40.497Z,982.82
2022-09-15T08:25:42.280Z,982.86
2022-09-15T08:26:44.011Z,982.85
2022-09-15T08:27:45.737Z,982.82
2022-09-15T08:28:47.437Z,982.89
2022-09-15T08:29:49.209Z,982.92
2022-09-15T08:30:50.975Z,982.87
2022-09-15T08:31:52.687Z,982.9
2022-09-15T08:32:54.387Z,982.89
2022-09-15T08:33:56.317Z,982.9
2022-09-15T08:34:57.836Z,982.93
2022-09-15T08:35:59.621Z,982.91
2022-09-15T08:37:01.342Z,982.94
2022-09-15T08:38:03.046Z,982.97
2022-09-15T08:39:04.847Z,982.94
2022-09-15T08:40:06.630Z,983.01
2022-09-15T08:41:13.280Z,982.99
2022-09-15T08:42:10.034Z,983.02
2022-09-15T08:43:11.769Z,983.02
2022-09-15T08:44:13.460Z,983.04
2022-09-15T08:45:15.187Z,983.07
2022-09-15T08:46:17.010Z,983.04
2022-09-15T08:47:18.665Z,983.07
2022-09-15T08:48:20.403Z,983.1
2022-09-15T08:49:35.769Z,983.07
2022-09-15T08:50:23.907Z,983.08
2022-09-15T08:51:25.633Z,983.06
2022-09-15T08:52:27.440Z,983.06
2022-09-15T08:53:29.287Z,983.1
2022-09-15T08:54:30.803Z,983.08
2022-09-15T08:55:32.587Z,983.08
2022-09-15T08:56:34.266Z,983.04
2022-09-15T08:57:36.077Z,983.08
2022-09-15T08:58:37.739Z,983.07
2022-09-15T08:59:39.478Z,983.05
2022-09-15T09:00:41.217Z,983.05
2022-09-15T09:02:44.535Z,983.08
2022-09-15T09:03:46.132Z,983.07
2022-09-15T09:04:47.877Z,983.04
2022-09-15T09:05:49.606Z,983.07
2022-09-15T09:06:51.311Z,983.03
2022-09-15T09:07:53.076Z,983.04
2022-09-15T09:08:54.852Z,983.03
2022-09-15T09:09:56.538Z,982.97
2022-09-15T09:10:58.263Z,983.02
2022-09-15T09:11:59.974Z,983.05
2022-09-15T09:13:01.737Z,983.04
2022-09-15T09:14:03.426Z,983.05
2022-09-15T09:15:05.237Z,983.09
2022-09-15T09:16:06.991Z,983.06
2022-09-15T09:17:08.669Z,983.14
2022-09-15T09:18:10.417Z,983.14
2022-09-15T09:19:12.140Z,983.11
2022-09-15T09:20:13.857Z,983.09
2022-09-15T09:21:15.576Z,983.2
2022-09-15T09:22:17.300Z,983.17
2022-09-15T09:23:19.057Z,983.15
2022-09-15T09:24:20.825Z,983.18
2022-09-15T09:25:27.576Z,983.2
2022-09-15T09:26:24.251Z,983.25
2022-09-15T09:27:25.990Z,983.22
2022-09-15T09:28:27.723Z,983.22
2022-09-15T09:29:29.465Z,983.22
2022-09-15T09:30:31.202Z,983.21
2022-09-15T09:31:32.951Z,983.24
2022-09-15T09:32:34.678Z,983.24
2022-09-15T09:33:38.545Z,983.17
2022-09-15T09:34:38.162Z,983.25
2022-09-15T09:35:39.874Z,983.26
2022-09-15T09:36:41.601Z,983.28
2022-09-15T09:37:43.325Z,983.3
2022-09-15T09:38:45.096Z,983.35
2022-09-15T09:39:46.978Z,983.31
2022-09-15T09:40:48.597Z,983.33
2022-09-15T09:41:50.300Z,983.3
2022-09-15T09:42:52.004Z,983.33
2022-09-15T09:43:53.741Z,983.32
2022-09-15T09:44:55.484Z,983.24
2022-09-15T09:45:57.341Z,983.24
2022-09-15T09:46:58.943Z,983.21
2022-09-15T09:48:01.797Z,983.28
2022-09-15T09:49:02.418Z,983.3
2022-09-15T09:50:04.186Z,983.28
2022-09-15T09:51:05.892Z,983.26
2022-09-15T09:52:07.624Z,983.26
2022-09-15T09:53:09.373Z,983.25
2022-09-15T09:54:11.094Z,983.24
2022-09-15T09:55:12.877Z,983.22
2022-09-15T09:56:14.551Z,983.2
2022-09-15T09:57:16.287Z,983.22
2022-09-15T09:58:18.022Z,983.23
2022-09-15T09:59:19.783Z,983.18
2022-09-15T10:00:21.507Z,983.15
2022-09-15T10:01:23.371Z,983.14
2022-09-15T10:02:25.002Z,983.17
2022-09-15T10:03:32.072Z,983.17
2022-09-15T10:04:28.492Z,983.13
2022-09-15T10:05:30.178Z,983.17
2022-09-15T10:06:31.941Z,983.17
2022-09-15T10:07:33.635Z,983.15
2022-09-15T10:08:35.401Z,983.13
2022-09-15T10:09:37.116Z,983.15
2022-09-15T10:10:38.892Z,983.17
2022-09-15T10:11:40.613Z,983.19
2022-09-15T10:12:42.309Z,983.23
2022-09-15T10:13:44.028Z,983.23
2022-09-15T10:14:45.768Z,983.24
2022-09-15T10:15:47.506Z,983.24
2022-09-15T10:16:49.367Z,983.2
2022-09-15T10:17:50.993Z,983.24
2022-09-15T10:18:54.544Z,983.2
2022-09-15T10:19:54.460Z,983.21
2022-09-15T10:20:56.164Z,983.19
2022-09-15T10:21:57.904Z,983.19
2022-09-15T10:22:59.641Z,983.17
2022-09-15T10:24:01.394Z,983.18
2022-09-15T10:25:03.117Z,983.22
2022-09-15T10:26:04.873Z,983.22
2022-09-15T10:27:06.563Z,983.22
2022-09-15T10:28:08.339Z,983.14
2022-09-15T10:29:10.080Z,983.17
2022-09-15T10:30:11.870Z,983.14
2022-09-15T10:31:13.602Z,983.17
2022-09-15T10:32:15.367Z,983.15
2022-09-15T10:33:17.021Z,983.17
2022-09-15T10:34:18.754Z,983.18
2022-09-15T10:35:20.472Z,983.18
2022-09-15T10:36:22.207Z,983.16
2022-09-15T10:37:23.961Z,983.19
2022-09-15T10:38:25.689Z,983.21
2022-09-15T10:39:27.412Z,983.21
2022-09-15T10:40:29.211Z,983.14
2022-09-15T10:41:30.896Z,983.27
2022-09-15T10:42:32.635Z,983.25
2022-09-15T10:43:34.340Z,983.22
2022-09-15T10:44:36.348Z,983.22
2022-09-15T10:45:37.970Z,983.23
2022-09-15T10:46:39.627Z,983.28
2022-09-15T10:47:41.294Z,983.25
2022-09-15T10:48:43.074Z,983.25
2022-09-15T10:49:44.773Z,983.31
2022-09-15T10:50:46.487Z,983.3
2022-09-15T10:51:48.219Z,983.35
2022-09-15T10:52:49.960Z,983.32
2022-09-15T10:53:55.576Z,983.33
2022-09-15T10:54:53.455Z,983.41
2022-09-15T10:55:55.163Z,983.38
2022-09-15T10:56:56.917Z,983.32
2022-09-15T10:57:58.629Z,983.4
2022-09-15T10:59:00.388Z,983.39
2022-09-15T11:00:02.103Z,983.37
2022-09-15T11:01:03.941Z,983.4
2022-09-15T11:02:05.703Z,983.36
2022-09-15T11:03:07.355Z,983.4
2022-09-15T11:04:09.090Z,983.37
2022-09-15T11:05:10.783Z,983.4
2022-09-15T11:06:12.631Z,983.41
2022-09-15T11:07:14.254Z,983.42
2022-09-15T11:08:16.002Z,983.34
2022-09-15T11:09:17.722Z,983.35
2022-09-15T11:10:19.688Z,983.43
2022-09-15T11:11:21.190Z,983.42
2022-09-15T11:12:25.949Z,983.43
2022-09-15T11:13:24.650Z,983.44
2022-09-15T11:14:26.387Z,983.41
2022-09-15T11:15:28.107Z,983.41
2022-09-15T11:16:29.906Z,983.42
2022-09-15T11:17:31.595Z,983.46
2022-09-15T11:18:33.297Z,983.44
2022-09-15T11:19:35.075Z,983.42
2022-09-15T11:20:36.768Z,983.4
2022-09-15T11:21:38.526Z,983.42
2022-09-15T11:22:40.278Z,983.48
2022-09-15T11:23:42.196Z,983.46
2022-09-15T11:24:43.711Z,983.47
2022-09-15T11:25:45.440Z,983.5
2022-09-15T11:26:47.289Z,983.49
2022-09-15T11:27:48.970Z,983.48
2022-09-15T11:28:50.713Z,983.49
2022-09-15T11:29:52.494Z,983.53
2022-09-15T11:30:54.364Z,983.54
2022-09-15T11:31:55.943Z,983.53
2022-09-15T11:32:58.205Z,983.53
2022-09-15T11:33:59.368Z,983.57
2022-09-15T11:35:01.065Z,983.53
2022-09-15T11:36:07.779Z,983.48
2022-09-15T11:37:04.539Z,983.56
2022-09-15T11:38:09.965Z,983.56
2022-09-15T11:39:08.008Z,983.59
2022-09-15T11:40:09.871Z,983.59
2022-09-15T11:41:11.469Z,983.58
2022-09-15T11:42:13.200Z,983.61
2022-09-15T11:43:14.952Z,983.6
2022-09-15T11:44:17.026Z,983.57
2022-09-15T11:45:18.410Z,983.58
2022-09-15T11:46:20.214Z,983.64
2022-09-15T11:47:21.900Z,983.66
2022-09-15T11:48:23.618Z,983.62
2022-09-15T11:49:25.368Z,983.62
2022-09-15T11:50:28.306Z,983.58
2022-09-15T11:51:30.428Z,983.58
2022-09-15T11:52:30.672Z,983.55
2022-09-15T11:53:32.426Z,983.54
2022-09-15T11:54:34.134Z,983.53
2022-09-15T11:55:35.884Z,983.55
2022-09-15T11:56:37.614Z,983.5
2022-09-15T11:57:39.414Z,983.55
2022-09-15T11:58:41.102Z,983.48
2022-09-15T11:59:42.846Z,983.5
2022-09-15T12:00:44.607Z,983.55
2022-09-15T12:01:46.354Z,983.52
2022-09-15T12:02:48.106Z,983.49
2022-09-15T12:03:49.787Z,983.52
2022-09-15T12:04:51.529Z,983.53
2022-09-15T12:05:53.262Z,983.54
2022-09-15T12:06:55.058Z,983.49
2022-09-15T12:07:56.727Z,983.5
2022-09-15T12:08:58.505Z,983.52
2022-09-15T12:10:00.186Z,983.49
2022-09-15T12:11:06.918Z,983.47
2022-09-15T12:12:03.638Z,983.48
2022-09-15T12:13:05.397Z,983.51
2022-09-15T12:14:07.090Z,983.47
2022-09-15T12:15:08.836Z,983.45
2022-09-15T12:16:10.673Z,983.48
2022-09-15T12:17:12.315Z,983.5
2022-09-15T12:18:34.354Z,983.5
2022-09-15T12:19:15.755Z,983.51
2022-09-15T12:20:17.527Z,983.48
2022-09-15T12:21:19.279Z,983.53
2022-09-15T12:22:20.975Z,983.48
2022-09-15T12:23:22.692Z,983.47
2022-09-15T12:24:24.431Z,983.5
2022-09-15T12:25:26.250Z,983.44
2022-09-15T12:26:27.218Z,983.44
2022-09-15T12:27:29.699Z,983.48
2022-09-15T12:29:34.270Z,983.46
2022-09-15T12:30:34.908Z,983.51
2022-09-15T12:31:36.642Z,983.52
2022-09-15T12:32:38.385Z,983.45
2022-09-15T12:33:40.121Z,983.5
2022-09-15T12:34:41.847Z,983.55
2022-09-15T12:35:43.543Z,983.47
2022-09-15T12:36:45.292Z,983.51
2022-09-15T12:37:46.996Z,983.47
2022-09-15T12:38:48.757Z,983.56
2022-09-15T12:39:50.501Z,983.57
2022-09-15T12:40:52.171Z,983.53
2022-09-15T12:41:53.911Z,983.56
2022-09-15T12:42:55.653Z,983.57
2022-09-15T12:43:57.395Z,983.54
2022-09-15T12:44:59.186Z,983.52
2022-09-15T12:46:06.938Z,983.55
2022-09-15T12:47:02.607Z,983.59
2022-09-15T12:48:20.893Z,983.67
2022-09-15T12:50:10.171Z,983.7
2022-09-15T12:51:11.955Z,983.75
2022-09-15T12:52:13.714Z,983.77
2022-09-15T12:53:15.427Z,983.78
2022-09-15T12:54:18.476Z,983.82
2022-09-15T12:55:18.917Z,983.74
2022-09-15T12:56:20.627Z,983.77